Bijou Hills, South Dakota
Current Conditions -  °F | °C
As of 8:35 PM on Saturday 25 Oct 2014 (Local Time) from K9V9 Reporting Station
Clear Clear  
Wind Chill: 51°   Ceiling: Unl
Heat Index: 51°   Visibility: 10mi
Dew Point: 34°   Wind: 7mph
Humidity: 52%   Direction: 120°ESE
Pressure: 30.03"   Gusts: NA
Location:  43.7515°N, 99.2297°W
Report Text: K9V9 260135Z AUTO 12006KT 10SM CLR 10/01 A3003 RMK AO2 T01030009
Loading
Personal Weather Stations






























Interactive Weather Map
Tropical Storm Tracking
New forecast layout! Learn more

10-Day Weather Forecast

Advertisements
Track Severe Weather on mobile